sensor_id;sensor_type;location;lat;lon;timestamp;pressure;altitude;pressure_sealevel;temperature;humidity
23339;BME280;11841;49.368;20.962;2022-12-07T00:01:23;95240.81;;;2.74;100.00
23339;BME280;11841;49.368;20.962;2022-12-07T00:03:51;95235.56;;;2.74;100.00
23339;BME280;11841;49.368;20.962;2022-12-07T00:06:18;95233.78;;;2.74;100.00
23339;BME280;11841;49.368;20.962;2022-12-07T00:08:45;95237.69;;;2.78;100.00
23339;BME280;11841;49.368;20.962;2022-12-07T00:11:13;95230.44;;;2.80;100.00
23339;BME280;11841;49.368;20.962;2022-12-07T00:13:40;95227.28;;;2.85;100.00
23339;BME280;11841;49.368;20.962;2022-12-07T00:16:08;95230.09;;;2.83;100.00
23339;BME280;11841;49.368;20.962;2022-12-07T00:18:35;95228.09;;;2.85;100.00
23339;BME280;11841;49.368;20.962;2022-12-07T00:21:21;95233.03;;;2.80;100.00
23339;BME280;11841;49.368;20.962;2022-12-07T00:23:48;95229.72;;;2.86;100.00
23339;BME280;11841;49.368;20.962;2022-12-07T00:26:17;95234.22;;;2.92;100.00
23339;BME280;11841;49.368;20.962;2022-12-07T00:28:44;95236.31;;;2.97;100.00
23339;BME280;11841;49.368;20.962;2022-12-07T00:31:12;95235.13;;;2.99;100.00
23339;BME280;11841;49.368;20.962;2022-12-07T00:33:39;95236.31;;;2.97;100.00
23339;BME280;11841;49.368;20.962;2022-12-07T00:36:06;95238.56;;;3.00;100.00
23339;BME280;11841;49.368;20.962;2022-12-07T00:38:33;95238.75;;;2.98;100.00
23339;BME280;11841;49.368;20.962;2022-12-07T00:41:01;95237.94;;;2.98;100.00
23339;BME280;11841;49.368;20.962;2022-12-07T00:43:28;95236.91;;;2.99;100.00
23339;BME280;11841;49.368;20.962;2022-12-07T00:45:54;95243.34;;;2.96;100.00
23339;BME280;11841;49.368;20.962;2022-12-07T00:48:21;95231.06;;;2.97;100.00
23339;BME280;11841;49.368;20.962;2022-12-07T00:50:48;95236.91;;;2.99;100.00
23339;BME280;11841;49.368;20.962;2022-12-07T00:53:15;95228.09;;;3.00;100.00
23339;BME280;11841;49.368;20.962;2022-12-07T00:55:42;95237.94;;;2.98;100.00
23339;BME280;11841;49.368;20.962;2022-12-07T00:58:08;95234.31;;;2.99;100.00
23339;BME280;11841;49.368;20.962;2022-12-07T01:00:36;95230.72;;;3.00;100.00
23339;BME280;11841;49.368;20.962;2022-12-07T01:03:03;95235.31;;;2.98;100.00
23339;BME280;11841;49.368;20.962;2022-12-07T01:05:30;95237.94;;;2.98;100.00
23339;BME280;11841;49.368;20.962;2022-12-07T01:07:56;95219.59;;;2.98;100.00
23339;BME280;11841;49.368;20.962;2022-12-07T01:10:25;95227.63;;;2.96;100.00
23339;BME280;11841;49.368;20.962;2022-12-07T01:12:51;95228.66;;;2.95;99.91
23339;BME280;11841;49.368;20.962;2022-12-07T01:15:18;95224.94;;;2.90;100.00
23339;BME280;11841;49.368;20.962;2022-12-07T01:17:44;95225.31;;;2.87;100.00
23339;BME280;11841;49.368;20.962;2022-12-07T01:20:11;95227.94;;;2.87;100.00
23339;BME280;11841;49.368;20.962;2022-12-07T01:22:41;95230.53;;;2.87;99.98
23339;BME280;11841;49.368;20.962;2022-12-07T01:25:08;95223.66;;;2.86;100.00
23339;BME280;11841;49.368;20.962;2022-12-07T01:27:35;95223.66;;;2.86;99.76
23339;BME280;11841;49.368;20.962;2022-12-07T01:30:02;95223.47;;;2.87;100.00
23339;BME280;11841;49.368;20.962;2022-12-07T01:32:29;95220.41;;;2.84;100.00
23339;BME280;11841;49.368;20.962;2022-12-07T01:34:56;95218.16;;;2.81;99.88
23339;BME280;11841;49.368;20.962;2022-12-07T01:37:22;95221.50;;;2.75;99.73
23339;BME280;11841;49.368;20.962;2022-12-07T01:39:49;95216.28;;;2.75;100.00
23339;BME280;11841;49.368;20.962;2022-12-07T01:42:16;95208.25;;;2.76;100.00
23339;BME280;11841;49.368;20.962;2022-12-07T01:47:27;95212.28;;;2.79;100.00
23339;BME280;11841;49.368;20.962;2022-12-07T01:49:54;95218.06;;;2.74;99.66
23339;BME280;11841;49.368;20.962;2022-12-07T01:52:25;95213.03;;;2.73;99.08
23339;BME280;11841;49.368;20.962;2022-12-07T01:54:54;95222.69;;;2.72;99.78
23339;BME280;11841;49.368;20.962;2022-12-07T01:57:23;95219.22;;;2.72;99.07
23339;BME280;11841;49.368;20.962;2022-12-07T01:59:50;95221.25;;;2.70;99.53
23339;BME280;11841;49.368;20.962;2022-12-07T02:02:18;95217.72;;;2.63;99.66
23339;BME280;11841;49.368;20.962;2022-12-07T02:04:46;95225.22;;;2.66;100.00
23339;BME280;11841;49.368;20.962;2022-12-07T02:07:12;95222.59;;;2.66;99.32
23339;BME280;11841;49.368;20.962;2022-12-07T02:09:39;95225.28;;;2.58;99.07
23339;BME280;11841;49.368;20.962;2022-12-07T02:12:05;95223.66;;;2.57;99.59
23339;BME280;11841;49.368;20.962;2022-12-07T02:14:32;95212.03;;;2.59;99.51
23339;BME280;11841;49.368;20.962;2022-12-07T02:32:34;95200.38;;;2.62;99.55
23339;BME280;11841;49.368;20.962;2022-12-07T02:35:11;95201.38;;;2.61;99.63
23339;BME280;11841;49.368;20.962;2022-12-07T02:37:41;95200.75;;;2.59;99.13
23339;BME280;11841;49.368;20.962;2022-12-07T02:40:16;95196.25;;;2.53;99.22
23339;BME280;11841;49.368;20.962;2022-12-07T02:42:49;95198.22;;;2.51;99.60
23339;BME280;11841;49.368;20.962;2022-12-07T02:45:18;95198.59;;;2.47;100.00
23339;BME280;11841;49.368;20.962;2022-12-07T02:47:47;95202.63;;;2.50;99.58
23339;BME280;11841;49.368;20.962;2022-12-07T02:50:14;95200.66;;;2.52;99.73
23339;BME280;11841;49.368;20.962;2022-12-07T02:52:43;95196.25;;;2.53;99.89
23339;BME280;11841;49.368;20.962;2022-12-07T02:55:09;95208.31;;;2.54;99.60
23339;BME280;11841;49.368;20.962;2022-12-07T02:57:42;95205.06;;;2.52;99.71
23339;BME280;11841;49.368;20.962;2022-12-07T03:00:14;95201.66;;;2.51;99.56
23339;BME280;11841;49.368;20.962;2022-12-07T03:08:07;95200.19;;;2.48;99.55
23339;BME280;11841;49.368;20.962;2022-12-07T03:10:47;95198.41;;;2.49;99.68
23339;BME280;11841;49.368;20.962;2022-12-07T03:13:34;95200.19;;;2.48;99.45
23339;BME280;11841;49.368;20.962;2022-12-07T03:16:03;95200.19;;;2.48;99.40
23339;BME280;11841;49.368;20.962;2022-12-07T03:18:35;95203.63;;;2.49;99.29
23339;BME280;11841;49.368;20.962;2022-12-07T03:21:05;95205.88;;;2.37;99.02
23339;BME280;11841;49.368;20.962;2022-12-07T03:23:33;95204.59;;;2.33;100.00
23339;BME280;11841;49.368;20.962;2022-12-07T03:26:01;95197.22;;;2.37;100.00
23339;BME280;11841;49.368;20.962;2022-12-07T03:28:33;95192.44;;;2.40;100.00
23339;BME280;11841;49.368;20.962;2022-12-07T03:31:02;95197.31;;;2.43;99.78
23339;BME280;11841;49.368;20.962;2022-12-07T03:33:36;95193.34;;;2.47;100.00
23339;BME280;11841;49.368;20.962;2022-12-07T03:38:40;95187.94;;;2.49;99.86
23339;BME280;11841;49.368;20.962;2022-12-07T03:41:19;95179.09;;;2.50;99.69
23339;BME280;11841;49.368;20.962;2022-12-07T03:43:48;95169.34;;;2.44;99.30
23339;BME280;11841;49.368;20.962;2022-12-07T03:52:15;95181.97;;;2.40;100.00
23339;BME280;11841;49.368;20.962;2022-12-07T03:56:42;95182.63;;;2.42;100.00
23339;BME280;11841;49.368;20.962;2022-12-07T03:59:10;95180.00;;;2.42;100.00
23339;BME280;11841;49.368;20.962;2022-12-07T04:01:37;95180.00;;;2.42;100.00
23339;BME280;11841;49.368;20.962;2022-12-07T04:04:04;95181.63;;;2.43;100.00
23339;BME280;11841;49.368;20.962;2022-12-07T04:06:30;95168.72;;;2.42;99.99
23339;BME280;11841;49.368;20.962;2022-12-07T04:08:56;95169.34;;;2.44;99.83
23339;BME280;11841;49.368;20.962;2022-12-07T04:11:23;95172.41;;;2.47;100.00
23339;BME280;11841;49.368;20.962;2022-12-07T04:13:49;95172.41;;;2.47;100.00
23339;BME280;11841;49.368;20.962;2022-12-07T04:16:34;95173.75;;;2.29;99.95
23339;BME280;11841;49.368;20.962;2022-12-07T04:19:09;95169.31;;;2.29;100.00
23339;BME280;11841;49.368;20.962;2022-12-07T04:21:35;95167.81;;;2.35;100.00
23339;BME280;11841;49.368;20.962;2022-12-07T04:24:02;95162.22;;;2.38;100.00
23339;BME280;11841;49.368;20.962;2022-12-07T04:26:28;95171.50;;;2.40;100.00
23339;BME280;11841;49.368;20.962;2022-12-07T04:28:55;95171.16;;;2.43;100.00
23339;BME280;11841;49.368;20.962;2022-12-07T04:31:21;95165.91;;;2.43;100.00
23339;BME280;11841;49.368;20.962;2022-12-07T04:33:48;95160.69;;;2.43;100.00
23339;BME280;11841;49.368;20.962;2022-12-07T04:36:14;95166.66;;;2.37;100.00
23339;BME280;11841;49.368;20.962;2022-12-07T04:38:40;95165.38;;;2.33;100.00
23339;BME280;11841;49.368;20.962;2022-12-07T04:41:08;95175.75;;;2.27;100.00
23339;BME280;11841;49.368;20.962;2022-12-07T04:43:34;95170.97;;;2.30;100.00
23339;BME280;11841;49.368;20.962;2022-12-07T04:46:01;95171.25;;;2.35;100.00
23339;BME280;11841;49.368;20.962;2022-12-07T04:48:27;95168.25;;;2.38;100.00
23339;BME280;11841;49.368;20.962;2022-12-07T04:50:54;95169.09;;;2.39;100.00
23339;BME280;11841;49.368;20.962;2022-12-07T04:53:20;95170.50;;;2.41;100.00
23339;BME280;11841;49.368;20.962;2022-12-07T04:55:47;95158.69;;;2.45;100.00
23339;BME280;11841;49.368;20.962;2022-12-07T04:58:13;95157.06;;;2.44;100.00
23339;BME280;11841;49.368;20.962;2022-12-07T05:00:40;95163.66;;;2.40;100.00
23339;BME280;11841;49.368;20.962;2022-12-07T05:03:07;95164.31;;;2.42;100.00
23339;BME280;11841;49.368;20.962;2022-12-07T05:05:33;95157.50;;;2.48;100.00
23339;BME280;11841;49.368;20.962;2022-12-07T05:08:00;95155.91;;;2.47;100.00
23339;BME280;11841;49.368;20.962;2022-12-07T05:10:26;95160.13;;;2.48;100.00
23339;BME280;11841;49.368;20.962;2022-12-07T05:12:53;95154.72;;;2.49;100.00
23339;BME280;11841;49.368;20.962;2022-12-07T05:15:19;95164.03;;;2.52;100.00
23339;BME280;11841;49.368;20.962;2022-12-07T05:17:45;95152.56;;;2.53;100.00
23339;BME280;11841;49.368;20.962;2022-12-07T05:20:12;95150.75;;;2.54;100.00
23339;BME280;11841;49.368;20.962;2022-12-07T05:22:38;95152.38;;;2.55;100.00
23339;BME280;11841;49.368;20.962;2022-12-07T05:25:05;95149.75;;;2.55;100.00
23339;BME280;11841;49.368;20.962;2022-12-07T05:27:31;95144.69;;;2.53;100.00
23339;BME280;11841;49.368;20.962;2022-12-07T05:29:57;95159.25;;;2.56;100.00
23339;BME280;11841;49.368;20.962;2022-12-07T05:32:24;95150.56;;;2.55;100.00
23339;BME280;11841;49.368;20.962;2022-12-07T05:34:51;95149.84;;;2.46;100.00
23339;BME280;11841;49.368;20.962;2022-12-07T05:37:17;95153.28;;;2.47;100.00
23339;BME280;11841;49.368;20.962;2022-12-07T05:39:43;95152.84;;;2.43;100.00
23339;BME280;11841;49.368;20.962;2022-12-07T05:42:10;95159.53;;;2.46;100.00
23339;BME280;11841;49.368;20.962;2022-12-07T05:44:40;95150.31;;;2.50;100.00
23339;BME280;11841;49.368;20.962;2022-12-07T05:47:07;95159.94;;;2.49;100.00
23339;BME280;11841;49.368;20.962;2022-12-07T05:49:33;95155.53;;;2.50;100.00
23339;BME280;11841;49.368;20.962;2022-12-07T05:52:00;95162.22;;;2.53;100.00
23339;BME280;11841;49.368;20.962;2022-12-07T05:54:26;95159.25;;;2.56;100.00
23339;BME280;11841;49.368;20.962;2022-12-07T05:56:53;95169.34;;;2.59;100.00
23339;BME280;11841;49.368;20.962;2022-12-07T05:59:19;95170.81;;;2.61;100.00
23339;BME280;11841;49.368;20.962;2022-12-07T06:01:53;95166.53;;;2.60;100.00
23339;BME280;11841;49.368;20.962;2022-12-07T06:04:21;95172.97;;;2.58;99.92
23339;BME280;11841;49.368;20.962;2022-12-07T06:06:47;95166.91;;;2.57;100.00
23339;BME280;11841;49.368;20.962;2022-12-07T06:09:14;95170.41;;;2.49;100.00
23339;BME280;11841;49.368;20.962;2022-12-07T06:11:40;95174.03;;;2.48;100.00
23339;BME280;11841;49.368;20.962;2022-12-07T06:14:25;95173.84;;;2.50;100.00
23339;BME280;11841;49.368;20.962;2022-12-07T06:16:52;95171.50;;;2.55;100.00
23339;BME280;11841;49.368;20.962;2022-12-07T06:19:18;95167.28;;;2.54;100.00
23339;BME280;11841;49.368;20.962;2022-12-07T06:21:45;95165.81;;;2.52;100.00
23339;BME280;11841;49.368;20.962;2022-12-07T06:24:12;95155.16;;;2.53;100.00
23339;BME280;11841;49.368;20.962;2022-12-07T06:26:39;95161.31;;;2.45;100.00
23339;BME280;11841;49.368;20.962;2022-12-07T06:29:05;95165.56;;;2.46;100.00
23339;BME280;11841;49.368;20.962;2022-12-07T06:31:32;95158.78;;;2.52;100.00
23339;BME280;11841;49.368;20.962;2022-12-07T06:34:03;95154.84;;;2.56;100.00
23339;BME280;11841;49.368;20.962;2022-12-07T06:36:29;95149.41;;;2.58;100.00
23339;BME280;11841;49.368;20.962;2022-12-07T06:38:56;95146.44;;;2.61;100.00
23339;BME280;11841;49.368;20.962;2022-12-07T06:41:22;95149.22;;;2.59;100.00
23339;BME280;11841;49.368;20.962;2022-12-07T06:43:49;95155.28;;;2.60;100.00
23339;BME280;11841;49.368;20.962;2022-12-07T06:46:21;95152.66;;;2.60;100.00
23339;BME280;11841;49.368;20.962;2022-12-07T06:48:48;95151.66;;;2.61;100.00
23339;BME280;11841;49.368;20.962;2022-12-07T06:51:14;95154.09;;;2.62;100.00
23339;BME280;11841;49.368;20.962;2022-12-07T06:53:41;95154.91;;;2.63;100.00
23339;BME280;11841;49.368;20.962;2022-12-07T06:56:07;95146.44;;;2.61;100.00
23339;BME280;11841;49.368;20.962;2022-12-07T06:58:34;95150.66;;;2.62;100.00
23339;BME280;11841;49.368;20.962;2022-12-07T07:01:00;95147.06;;;2.63;100.00
23339;BME280;11841;49.368;20.962;2022-12-07T07:03:27;95146.06;;;2.64;100.00
23339;BME280;11841;49.368;20.962;2022-12-07T07:05:53;95152.56;;;2.68;100.00
23339;BME280;11841;49.368;20.962;2022-12-07T07:08:20;95154.16;;;2.69;100.00
23339;BME280;11841;49.368;20.962;2022-12-07T07:10:48;95156.59;;;2.70;100.00
23339;BME280;11841;49.368;20.962;2022-12-07T07:13:14;95157.44;;;2.71;100.00
23339;BME280;11841;49.368;20.962;2022-12-07T07:15:41;95159.22;;;2.70;100.00
23339;BME280;11841;49.368;20.962;2022-12-07T07:18:07;95154.16;;;2.69;100.00
23339;BME280;11841;49.368;20.962;2022-12-07T07:20:34;95166.63;;;2.67;100.00
23339;BME280;11841;49.368;20.962;2022-12-07T07:23:00;95161.38;;;2.67;100.00
23339;BME280;11841;49.368;20.962;2022-12-07T07:25:27;95159.41;;;2.69;100.00
23339;BME280;11841;49.368;20.962;2022-12-07T07:27:53;95163.03;;;2.68;100.00
23339;BME280;11841;49.368;20.962;2022-12-07T07:30:19;95161.38;;;2.67;100.00
23339;BME280;11841;49.368;20.962;2022-12-07T07:32:46;95163.41;;;2.65;100.00
23339;BME280;11841;49.368;20.962;2022-12-07T07:35:12;95169.53;;;2.57;100.00
23339;BME280;11841;49.368;20.962;2022-12-07T07:37:40;95162.84;;;2.55;100.00
23339;BME280;11841;49.368;20.962;2022-12-07T07:40:07;95167.72;;;2.58;100.00
23339;BME280;11841;49.368;20.962;2022-12-07T07:42:34;95168.97;;;2.62;100.00
23339;BME280;11841;49.368;20.962;2022-12-07T07:45:00;95172.88;;;2.66;100.00
23339;BME280;11841;49.368;20.962;2022-12-07T07:47:27;95169.06;;;2.68;100.00
23339;BME280;11841;49.368;20.962;2022-12-07T07:49:55;95171.66;;;2.68;100.00
23339;BME280;11841;49.368;20.962;2022-12-07T07:52:21;95175.13;;;2.69;100.00
23339;BME280;11841;49.368;20.962;2022-12-07T07:54:48;95176.75;;;2.70;100.00
23339;BME280;11841;49.368;20.962;2022-12-07T07:57:15;95184.22;;;2.73;100.00
23339;BME280;11841;49.368;20.962;2022-12-07T07:59:42;95189.09;;;2.76;100.00
23339;BME280;11841;49.368;20.962;2022-12-07T08:02:10;95185.06;;;2.73;100.00
23339;BME280;11841;49.368;20.962;2022-12-07T08:04:39;95188.84;;;2.71;100.00
23339;BME280;11841;49.368;20.962;2022-12-07T08:07:06;95189.47;;;2.73;100.00
23339;BME280;11841;49.368;20.962;2022-12-07T08:09:32;95191.72;;;2.76;100.00
23339;BME280;11841;49.368;20.962;2022-12-07T08:11:58;95200.84;;;2.80;100.00
23339;BME280;11841;49.368;20.962;2022-12-07T08:14:25;95206.25;;;2.78;100.00
23339;BME280;11841;49.368;20.962;2022-12-07T08:16:53;95201.19;;;2.77;100.00
23339;BME280;11841;49.368;20.962;2022-12-07T08:19:20;95202.47;;;2.81;100.00
23339;BME280;11841;49.368;20.962;2022-12-07T08:21:46;95196.25;;;2.82;100.00
23339;BME280;11841;49.368;20.962;2022-12-07T08:24:13;95196.84;;;2.84;100.00
23339;BME280;11841;49.368;20.962;2022-12-07T08:26:39;95191.44;;;2.85;100.00
23339;BME280;11841;49.368;20.962;2022-12-07T08:29:06;95196.25;;;2.82;100.00
23339;BME280;11841;49.368;20.962;2022-12-07T08:31:33;95197.41;;;2.79;100.00
23339;BME280;11841;49.368;20.962;2022-12-07T08:33:59;95196.59;;;2.79;100.00
23339;BME280;11841;49.368;20.962;2022-12-07T08:36:26;95197.41;;;2.79;100.00
23339;BME280;11841;49.368;20.962;2022-12-07T08:38:52;95200.56;;;2.75;100.00
23339;BME280;11841;49.368;20.962;2022-12-07T08:41:39;95189.66;;;2.71;100.00
23339;BME280;11841;49.368;20.962;2022-12-07T08:44:05;95192.53;;;2.76;100.00
23339;BME280;11841;49.368;20.962;2022-12-07T08:46:45;95193.00;;;2.80;100.00
23339;BME280;11841;49.368;20.962;2022-12-07T08:51:40;95202.19;;;2.76;100.00
23339;BME280;11841;49.368;20.962;2022-12-07T08:54:08;95195.69;;;2.72;100.00
23339;BME280;11841;49.368;20.962;2022-12-07T08:56:35;95197.13;;;2.74;100.00
23339;BME280;11841;49.368;20.962;2022-12-07T08:59:02;95191.00;;;2.82;100.00
23339;BME280;11841;49.368;20.962;2022-12-07T09:01:29;95196.25;;;2.82;100.00
23339;BME280;11841;49.368;20.962;2022-12-07T09:03:56;95202.72;;;2.86;100.00
23339;BME280;11841;49.368;20.962;2022-12-07T09:06:22;95198.75;;;2.90;100.00
23339;BME280;11841;49.368;20.962;2022-12-07T09:08:49;95196.78;;;2.92;100.00
23339;BME280;11841;49.368;20.962;2022-12-07T09:11:17;95194.75;;;2.94;100.00
23339;BME280;11841;49.368;20.962;2022-12-07T09:13:46;95194.44;;;2.97;100.00
23339;BME280;11841;49.368;20.962;2022-12-07T09:16:13;95193.41;;;2.98;100.00
23339;BME280;11841;49.368;20.962;2022-12-07T09:18:39;95191.63;;;2.98;100.00
23339;BME280;11841;49.368;20.962;2022-12-07T09:21:06;95199.47;;;2.98;100.00
23339;BME280;11841;49.368;20.962;2022-12-07T09:23:32;95190.44;;;3.01;100.00
23339;BME280;11841;49.368;20.962;2022-12-07T09:25:59;95185.00;;;3.02;100.00
23339;BME280;11841;49.368;20.962;2022-12-07T09:28:32;95186.56;;;2.97;100.00
23339;BME280;11841;49.368;20.962;2022-12-07T09:30:59;95185.09;;;2.94;100.00
23339;BME280;11841;49.368;20.962;2022-12-07T09:33:45;95180.31;;;2.98;100.00
23339;BME280;11841;49.368;20.962;2022-12-07T09:36:12;95182.19;;;3.04;100.00
23339;BME280;11841;49.368;20.962;2022-12-07T09:38:38;95183.47;;;3.08;100.00
23339;BME280;11841;49.368;20.962;2022-12-07T09:41:05;95178.84;;;3.10;100.00
23339;BME280;11841;49.368;20.962;2022-12-07T09:43:33;95181.28;;;3.11;100.00
23339;BME280;11841;49.368;20.962;2022-12-07T09:46:01;95178.50;;;3.13;100.00
23339;BME280;11841;49.368;20.962;2022-12-07T09:48:32;95184.53;;;3.13;100.00
23339;BME280;11841;49.368;20.962;2022-12-07T09:50:59;95182.50;;;3.09;100.00
23339;BME280;11841;49.368;20.962;2022-12-07T09:53:27;95177.97;;;3.03;99.61
23339;BME280;11841;49.368;20.962;2022-12-07T09:55:54;95172.84;;;2.95;100.00
23339;BME280;11841;49.368;20.962;2022-12-07T09:58:22;95172.84;;;2.95;100.00
23339;BME280;11841;49.368;20.962;2022-12-07T10:00:53;95170.66;;;2.98;100.00
23339;BME280;11841;49.368;20.962;2022-12-07T10:03:22;95169.09;;;3.04;100.00
23339;BME280;11841;49.368;20.962;2022-12-07T10:05:49;95168.56;;;3.08;100.00
23339;BME280;11841;49.368;20.962;2022-12-07T10:08:16;95166.41;;;3.12;100.00
23339;BME280;11841;49.368;20.962;2022-12-07T10:10:44;95166.22;;;3.13;100.00
23339;BME280;11841;49.368;20.962;2022-12-07T10:13:11;95164.22;;;3.15;99.99
23339;BME280;11841;49.368;20.962;2022-12-07T10:18:17;95166.47;;;3.18;99.68
23339;BME280;11841;49.368;20.962;2022-12-07T10:20:44;95156.19;;;3.17;100.00
23339;BME280;11841;49.368;20.962;2022-12-07T10:23:16;95155.91;;;3.12;100.00
23339;BME280;11841;49.368;20.962;2022-12-07T10:25:42;95158.91;;;3.09;100.00
23339;BME280;11841;49.368;20.962;2022-12-07T10:28:13;95153.75;;;3.01;100.00
23339;BME280;11841;49.368;20.962;2022-12-07T10:30:58;95160.66;;;3.02;100.00
23339;BME280;11841;49.368;20.962;2022-12-07T10:33:30;95150.34;;;3.00;100.00
23339;BME280;11841;49.368;20.962;2022-12-07T10:35:57;95152.34;;;2.98;100.00
23339;BME280;11841;49.368;20.962;2022-12-07T10:38:24;95151.63;;;2.90;100.00
23339;BME280;11841;49.368;20.962;2022-12-07T10:41:05;95148.69;;;2.78;100.00
23339;BME280;11841;49.368;20.962;2022-12-07T10:43:32;95152.72;;;2.81;100.00
23339;BME280;11841;49.368;20.962;2022-12-07T10:48:56;95151.72;;;2.96;100.00
23339;BME280;11841;49.368;20.962;2022-12-07T10:57:19;95149.34;;;3.01;100.00
23339;BME280;11841;49.368;20.962;2022-12-07T10:59:52;95139.69;;;3.02;100.00
23339;BME280;11841;49.368;20.962;2022-12-07T11:07:43;95135.19;;;2.96;100.00
23339;BME280;11841;49.368;20.962;2022-12-07T11:13:01;95128.06;;;2.90;100.00
23339;BME280;11841;49.368;20.962;2022-12-07T11:18:09;95129.03;;;2.89;100.00
23339;BME280;11841;49.368;20.962;2022-12-07T11:23:29;95134.34;;;3.10;100.00
23339;BME280;11841;49.368;20.962;2022-12-07T11:28:36;95123.75;;;3.18;100.00
23339;BME280;11841;49.368;20.962;2022-12-07T11:38:38;95130.25;;;3.22;100.00
23339;BME280;11841;49.368;20.962;2022-12-07T11:41:06;95133.84;;;3.21;100.00
23339;BME280;11841;49.368;20.962;2022-12-07T11:43:54;95131.59;;;3.18;100.00
23339;BME280;11841;49.368;20.962;2022-12-07T11:46:22;95135.09;;;3.25;100.00
23339;BME280;11841;49.368;20.962;2022-12-07T11:49:14;95131.56;;;3.32;100.00
23339;BME280;11841;49.368;20.962;2022-12-07T11:51:37;95128.38;;;3.37;100.00
23339;BME280;11841;49.368;20.962;2022-12-07T11:54:09;95121.94;;;3.39;100.00
23339;BME280;11841;49.368;20.962;2022-12-07T11:56:38;95129.63;;;3.41;100.00
23339;BME280;11841;49.368;20.962;2022-12-07T12:02:07;95127.03;;;3.41;100.00
23339;BME280;11841;49.368;20.962;2022-12-07T12:07:05;95131.75;;;3.52;100.00
23339;BME280;11841;49.368;20.962;2022-12-07T12:09:58;95132.00;;;3.57;100.00
23339;BME280;11841;49.368;20.962;2022-12-07T12:18:27;95126.41;;;3.66;100.00
23339;BME280;11841;49.368;20.962;2022-12-07T12:21:15;95125.69;;;3.72;100.00
23339;BME280;11841;49.368;20.962;2022-12-07T12:23:46;95123.50;;;3.76;100.00
23339;BME280;11841;49.368;20.962;2022-12-07T12:26:20;95134.81;;;3.77;99.47
23339;BME280;11841;49.368;20.962;2022-12-07T12:33:49;95125.00;;;3.85;99.74
23339;BME280;11841;49.368;20.962;2022-12-07T12:41:12;95132.09;;;3.91;98.80
23339;BME280;11841;49.368;20.962;2022-12-07T12:43:58;95123.34;;;3.84;98.51
23339;BME280;11841;49.368;20.962;2022-12-07T12:51:46;95122.72;;;3.82;99.46
23339;BME280;11841;49.368;20.962;2022-12-07T13:05:16;95129.00;;;3.60;100.00
23339;BME280;11841;49.368;20.962;2022-12-07T13:12:56;95123.88;;;3.73;100.00
23339;BME280;11841;49.368;20.962;2022-12-07T13:17:59;95127.06;;;3.68;100.00
23339;BME280;11841;49.368;20.962;2022-12-07T13:20:49;95133.69;;;3.64;100.00
23339;BME280;11841;49.368;20.962;2022-12-07T13:23:20;95131.41;;;3.61;100.00
23339;BME280;11841;49.368;20.962;2022-12-07T13:25:49;95135.50;;;3.64;100.00
23339;BME280;11841;49.368;20.962;2022-12-07T13:28:17;95125.63;;;3.66;100.00
23339;BME280;11841;49.368;20.962;2022-12-07T13:33:17;95134.47;;;3.65;100.00
23339;BME280;11841;49.368;20.962;2022-12-07T13:35:45;95134.66;;;3.63;100.00
23339;BME280;11841;49.368;20.962;2022-12-07T13:38:21;95140.44;;;3.52;100.00
23339;BME280;11841;49.368;20.962;2022-12-07T13:41:10;95144.22;;;3.50;100.00
23339;BME280;11841;49.368;20.962;2022-12-07T13:43:44;95147.09;;;3.55;100.00
23339;BME280;11841;49.368;20.962;2022-12-07T13:46:11;95151.59;;;3.61;100.00
23339;BME280;11841;49.368;20.962;2022-12-07T13:48:45;95147.00;;;3.63;100.00
23339;BME280;11841;49.368;20.962;2022-12-07T13:51:20;95144.19;;;3.64;100.00
23339;BME280;11841;49.368;20.962;2022-12-07T13:53:51;95143.72;;;3.61;100.00
23339;BME280;11841;49.368;20.962;2022-12-07T13:56:20;95143.53;;;3.62;100.00
23339;BME280;11841;49.368;20.962;2022-12-07T13:58:46;95145.34;;;3.62;100.00
23339;BME280;11841;49.368;20.962;2022-12-07T14:01:13;95148.09;;;3.54;100.00
23339;BME280;11841;49.368;20.962;2022-12-07T14:03:39;95146.66;;;3.51;100.00
23339;BME280;11841;49.368;20.962;2022-12-07T14:06:17;95156.94;;;3.53;100.00
23339;BME280;11841;49.368;20.962;2022-12-07T14:08:44;95157.31;;;3.50;100.00
23339;BME280;11841;49.368;20.962;2022-12-07T14:11:15;95159.44;;;3.40;100.00
23339;BME280;11841;49.368;20.962;2022-12-07T14:18:46;95154.06;;;3.48;100.00
23339;BME280;11841;49.368;20.962;2022-12-07T14:23:39;95158.59;;;3.54;100.00
23339;BME280;11841;49.368;20.962;2022-12-07T14:26:13;95157.25;;;3.43;100.00
23339;BME280;11841;49.368;20.962;2022-12-07T14:28:40;95157.19;;;3.37;100.00
23339;BME280;11841;49.368;20.962;2022-12-07T14:31:12;95163.69;;;3.41;100.00
23339;BME280;11841;49.368;20.962;2022-12-07T14:33:49;95161.09;;;3.41;100.00
23339;BME280;11841;49.368;20.962;2022-12-07T14:36:15;95166.75;;;3.44;100.00
23339;BME280;11841;49.368;20.962;2022-12-07T14:38:42;95173.41;;;3.47;100.00
23339;BME280;11841;49.368;20.962;2022-12-07T14:41:15;95175.66;;;3.50;100.00
23339;BME280;11841;49.368;20.962;2022-12-07T14:44:02;95183.16;;;3.53;100.00
23339;BME280;11841;49.368;20.962;2022-12-07T14:46:49;95175.91;;;3.55;100.00
23339;BME280;11841;49.368;20.962;2022-12-07T14:49:35;95175.72;;;3.56;100.00
23339;BME280;11841;49.368;20.962;2022-12-07T14:52:02;95174.13;;;3.55;100.00
23339;BME280;11841;49.368;20.962;2022-12-07T14:54:49;95185.41;;;3.56;100.00
23339;BME280;11841;49.368;20.962;2022-12-07T14:57:15;95183.59;;;3.56;100.00
23339;BME280;11841;49.368;20.962;2022-12-07T14:59:42;95185.41;;;3.56;100.00
23339;BME280;11841;49.368;20.962;2022-12-07T15:02:11;95189.03;;;3.55;100.00
23339;BME280;11841;49.368;20.962;2022-12-07T15:04:38;95177.91;;;3.53;100.00
23339;BME280;11841;49.368;20.962;2022-12-07T15:07:06;95182.16;;;3.54;100.00
23339;BME280;11841;49.368;20.962;2022-12-07T15:09:35;95181.34;;;3.53;100.00